sensor_id;sensor_type;location;lat;lon;timestamp;pressure;altitude;pressure_sealevel;temperature
24278;BMP280;12394;42.692;23.314;2022-11-24T00:00:44;93926.47;;;8.92
24278;BMP280;12394;42.692;23.314;2022-11-24T00:03:10;93932.06;;;8.90
24278;BMP280;12394;42.692;23.314;2022-11-24T00:05:35;93926.59;;;8.85
24278;BMP280;12394;42.692;23.314;2022-11-24T00:08:02;93925.19;;;8.80
24278;BMP280;12394;42.692;23.314;2022-11-24T00:10:28;93927.53;;;8.95
24278;BMP280;12394;42.692;23.314;2022-11-24T00:12:54;93925.47;;;9.06
24278;BMP280;12394;42.692;23.314;2022-11-24T00:15:20;93935.69;;;8.97
24278;BMP280;12394;42.692;23.314;2022-11-24T00:17:45;93919.31;;;8.73
24278;BMP280;12394;42.692;23.314;2022-11-24T00:20:11;93926.88;;;8.67
24278;BMP280;12394;42.692;23.314;2022-11-24T00:22:36;93942.69;;;8.80
24278;BMP280;12394;42.692;23.314;2022-11-24T00:25:02;93941.28;;;8.75
24278;BMP280;12394;42.692;23.314;2022-11-24T00:27:27;93935.09;;;8.66
24278;BMP280;12394;42.692;23.314;2022-11-24T00:29:52;93939.91;;;8.67
24278;BMP280;12394;42.692;23.314;2022-11-24T00:32:18;93942.19;;;8.65
24278;BMP280;12394;42.692;23.314;2022-11-24T00:34:43;93950.34;;;8.67
24278;BMP280;12394;42.692;23.314;2022-11-24T00:37:08;93943.72;;;8.63
24278;BMP280;12394;42.692;23.314;2022-11-24T00:39:34;93941.50;;;8.61
24278;BMP280;12394;42.692;23.314;2022-11-24T00:41:59;93950.00;;;8.65
24278;BMP280;12394;42.692;23.314;2022-11-24T00:44:24;93940.84;;;8.77
24278;BMP280;12394;42.692;23.314;2022-11-24T00:46:50;93955.16;;;8.69
24278;BMP280;12394;42.692;23.314;2022-11-24T00:49:15;93960.19;;;8.79
24278;BMP280;12394;42.692;23.314;2022-11-24T00:51:40;93959.63;;;8.68
24278;BMP280;12394;42.692;23.314;2022-11-24T00:54:06;93973.97;;;8.57
24278;BMP280;12394;42.692;23.314;2022-11-24T00:56:31;93959.47;;;8.56
24278;BMP280;12394;42.692;23.314;2022-11-24T00:58:57;93956.91;;;8.52
24278;BMP280;12394;42.692;23.314;2022-11-24T01:01:25;93961.44;;;8.48
24278;BMP280;12394;42.692;23.314;2022-11-24T01:03:51;93957.00;;;8.45
24278;BMP280;12394;42.692;23.314;2022-11-24T01:06:25;93957.72;;;8.49
24278;BMP280;12394;42.692;23.314;2022-11-24T01:08:51;93958.91;;;8.44
24278;BMP280;12394;42.692;23.314;2022-11-24T01:11:20;93951.09;;;8.41
24278;BMP280;12394;42.692;23.314;2022-11-24T01:13:50;93960.41;;;8.42
24278;BMP280;12394;42.692;23.314;2022-11-24T01:16:19;93957.13;;;8.38
24278;BMP280;12394;42.692;23.314;2022-11-24T01:18:46;93951.56;;;8.36
24278;BMP280;12394;42.692;23.314;2022-11-24T01:21:12;93950.38;;;8.40
24278;BMP280;12394;42.692;23.314;2022-11-24T01:23:38;93953.34;;;8.42
24278;BMP280;12394;42.692;23.314;2022-11-24T01:26:08;93968.22;;;8.42
24278;BMP280;12394;42.692;23.314;2022-11-24T01:28:34;93970.94;;;8.35
24278;BMP280;12394;42.692;23.314;2022-11-24T01:31:02;93965.69;;;8.38
24278;BMP280;12394;42.692;23.314;2022-11-24T01:33:28;93966.81;;;8.37
24278;BMP280;12394;42.692;23.314;2022-11-24T01:35:53;93975.75;;;8.36
24278;BMP280;12394;42.692;23.314;2022-11-24T01:38:19;93973.13;;;8.36
24278;BMP280;12394;42.692;23.314;2022-11-24T01:40:45;93971.28;;;8.37
24278;BMP280;12394;42.692;23.314;2022-11-24T01:43:18;93961.03;;;8.23
24278;BMP280;12394;42.692;23.314;2022-11-24T01:45:44;93974.28;;;8.35
24278;BMP280;12394;42.692;23.314;2022-11-24T01:48:15;93976.41;;;8.44
24278;BMP280;12394;42.692;23.314;2022-11-24T01:50:49;93973.28;;;8.53
24278;BMP280;12394;42.692;23.314;2022-11-24T01:53:18;93962.06;;;8.56
24278;BMP280;12394;42.692;23.314;2022-11-24T01:55:45;93966.44;;;8.62
24278;BMP280;12394;42.692;23.314;2022-11-24T01:58:18;93966.31;;;8.69
24278;BMP280;12394;42.692;23.314;2022-11-24T02:00:44;93959.63;;;8.68
24278;BMP280;12394;42.692;23.314;2022-11-24T02:03:17;93958.22;;;8.64
24278;BMP280;12394;42.692;23.314;2022-11-24T02:05:49;93944.72;;;8.69
24278;BMP280;12394;42.692;23.314;2022-11-24T02:08:24;93969.06;;;8.85
24278;BMP280;12394;42.692;23.314;2022-11-24T02:10:52;93961.56;;;8.87
24278;BMP280;12394;42.692;23.314;2022-11-24T02:13:20;93964.97;;;8.84
24278;BMP280;12394;42.692;23.314;2022-11-24T02:15:46;93965.69;;;8.85
24278;BMP280;12394;42.692;23.314;2022-11-24T02:18:11;93969.75;;;8.86
24278;BMP280;12394;42.692;23.314;2022-11-24T02:20:37;93979.13;;;8.83
24278;BMP280;12394;42.692;23.314;2022-11-24T02:28:14;93975.56;;;8.74
24278;BMP280;12394;42.692;23.314;2022-11-24T02:30:40;93974.81;;;8.73
24278;BMP280;12394;42.692;23.314;2022-11-24T02:33:05;93953.78;;;8.61
24278;BMP280;12394;42.692;23.314;2022-11-24T02:35:31;93964.16;;;8.64
24278;BMP280;12394;42.692;23.314;2022-11-24T02:37:56;93974.53;;;8.68
24278;BMP280;12394;42.692;23.314;2022-11-24T02:40:24;93984.63;;;8.66
24278;BMP280;12394;42.692;23.314;2022-11-24T02:42:58;93986.50;;;8.65
24278;BMP280;12394;42.692;23.314;2022-11-24T02:45:25;93988.41;;;8.61
24278;BMP280;12394;42.692;23.314;2022-11-24T02:47:51;93988.25;;;8.48
24278;BMP280;12394;42.692;23.314;2022-11-24T02:50:17;93959.00;;;8.37
24278;BMP280;12394;42.692;23.314;2022-11-24T02:52:42;93986.84;;;8.40
24278;BMP280;12394;42.692;23.314;2022-11-24T02:55:08;93977.16;;;8.41
24278;BMP280;12394;42.692;23.314;2022-11-24T02:57:33;93981.25;;;8.42
24278;BMP280;12394;42.692;23.314;2022-11-24T02:59:58;93976.44;;;8.40
24278;BMP280;12394;42.692;23.314;2022-11-24T03:02:24;93960.91;;;8.33
24278;BMP280;12394;42.692;23.314;2022-11-24T03:04:49;93982.69;;;8.46
24278;BMP280;12394;42.692;23.314;2022-11-24T03:07:14;93982.63;;;8.50
24278;BMP280;12394;42.692;23.314;2022-11-24T03:09:40;93980.75;;;8.51
24278;BMP280;12394;42.692;23.314;2022-11-24T03:12:06;93988.50;;;8.54
24278;BMP280;12394;42.692;23.314;2022-11-24T03:14:31;93990.41;;;8.54
24278;BMP280;12394;42.692;23.314;2022-11-24T03:16:56;93988.38;;;8.65
24278;BMP280;12394;42.692;23.314;2022-11-24T03:19:22;93987.25;;;8.66
24278;BMP280;12394;42.692;23.314;2022-11-24T03:21:47;93988.31;;;8.68
24278;BMP280;12394;42.692;23.314;2022-11-24T03:24:13;93999.09;;;8.70
24278;BMP280;12394;42.692;23.314;2022-11-24T03:26:38;94000.22;;;8.69
24278;BMP280;12394;42.692;23.314;2022-11-24T03:29:03;94011.75;;;8.68
24278;BMP280;12394;42.692;23.314;2022-11-24T03:31:29;94016.72;;;8.63
24278;BMP280;12394;42.692;23.314;2022-11-24T03:33:54;94019.34;;;8.59
24278;BMP280;12394;42.692;23.314;2022-11-24T03:36:19;94018.22;;;8.60
24278;BMP280;12394;42.692;23.314;2022-11-24T03:38:45;94014.94;;;8.56
24278;BMP280;12394;42.692;23.314;2022-11-24T03:41:11;94022.38;;;8.58
24278;BMP280;12394;42.692;23.314;2022-11-24T03:43:36;94020.03;;;8.63
24278;BMP280;12394;42.692;23.314;2022-11-24T03:46:01;94015.72;;;8.53
24278;BMP280;12394;42.692;23.314;2022-11-24T03:48:27;94024.53;;;8.63
24278;BMP280;12394;42.692;23.314;2022-11-24T03:51:00;94028.94;;;8.66
24278;BMP280;12394;42.692;23.314;2022-11-24T03:53:27;94019.41;;;8.56
24278;BMP280;12394;42.692;23.314;2022-11-24T03:55:53;94027.53;;;8.61
24278;BMP280;12394;42.692;23.314;2022-11-24T03:58:19;94023.06;;;8.62
24278;BMP280;12394;42.692;23.314;2022-11-24T04:00:47;94041.25;;;8.65
24278;BMP280;12394;42.692;23.314;2022-11-24T04:03:12;94045.41;;;8.59
24278;BMP280;12394;42.692;23.314;2022-11-24T04:05:37;94052.47;;;8.62
24278;BMP280;12394;42.692;23.314;2022-11-24T04:08:03;94056.19;;;8.61
24278;BMP280;12394;42.692;23.314;2022-11-24T04:10:31;94053.59;;;8.61
24278;BMP280;12394;42.692;23.314;2022-11-24T04:12:57;94054.34;;;8.62
24278;BMP280;12394;42.692;23.314;2022-11-24T04:15:22;94035.53;;;8.47
24278;BMP280;12394;42.692;23.314;2022-11-24T04:17:48;94055.41;;;8.64
24278;BMP280;12394;42.692;23.314;2022-11-24T04:20:15;94055.06;;;8.62
24278;BMP280;12394;42.692;23.314;2022-11-24T04:22:41;94057.25;;;8.67
24278;BMP280;12394;42.692;23.314;2022-11-24T04:25:08;94059.91;;;8.87
24278;BMP280;12394;42.692;23.314;2022-11-24T04:27:35;94060.13;;;8.73
24278;BMP280;12394;42.692;23.314;2022-11-24T04:30:02;94068.69;;;8.73
24278;BMP280;12394;42.692;23.314;2022-11-24T04:32:27;94063.78;;;9.02
24278;BMP280;12394;42.692;23.314;2022-11-24T04:34:52;94073.84;;;9.04
24278;BMP280;12394;42.692;23.314;2022-11-24T04:37:18;94074.38;;;8.91
24278;BMP280;12394;42.692;23.314;2022-11-24T04:39:43;94076.38;;;8.84
24278;BMP280;12394;42.692;23.314;2022-11-24T04:42:10;94077.78;;;8.88
24278;BMP280;12394;42.692;23.314;2022-11-24T04:44:36;94076.09;;;9.02
24278;BMP280;12394;42.692;23.314;2022-11-24T04:47:01;94080.34;;;8.92
24278;BMP280;12394;42.692;23.314;2022-11-24T04:49:26;94080.09;;;8.83
24278;BMP280;12394;42.692;23.314;2022-11-24T04:51:52;94076.41;;;8.80
24278;BMP280;12394;42.692;23.314;2022-11-24T04:54:17;94077.00;;;8.91
24278;BMP280;12394;42.692;23.314;2022-11-24T04:56:42;94076.78;;;9.06
24278;BMP280;12394;42.692;23.314;2022-11-24T04:59:14;94086.25;;;9.19
24278;BMP280;12394;42.692;23.314;2022-11-24T05:01:41;94075.19;;;9.12
24278;BMP280;12394;42.692;23.314;2022-11-24T05:04:08;94085.69;;;9.08
24278;BMP280;12394;42.692;23.314;2022-11-24T05:06:34;94067.34;;;8.88
24278;BMP280;12394;42.692;23.314;2022-11-24T05:09:00;94089.66;;;8.93
24278;BMP280;12394;42.692;23.314;2022-11-24T05:11:25;94070.41;;;8.83
24278;BMP280;12394;42.692;23.314;2022-11-24T05:13:52;94080.03;;;8.86
24278;BMP280;12394;42.692;23.314;2022-11-24T05:16:17;94076.50;;;8.73
24278;BMP280;12394;42.692;23.314;2022-11-24T05:18:43;94089.03;;;8.82
24278;BMP280;12394;42.692;23.314;2022-11-24T05:21:08;94086.50;;;8.78
24278;BMP280;12394;42.692;23.314;2022-11-24T05:23:34;94096.38;;;8.90
24278;BMP280;12394;42.692;23.314;2022-11-24T05:26:00;94088.09;;;8.96
24278;BMP280;12394;42.692;23.314;2022-11-24T05:28:26;94091.50;;;8.92
24278;BMP280;12394;42.692;23.314;2022-11-24T05:30:52;94087.47;;;8.88
24278;BMP280;12394;42.692;23.314;2022-11-24T05:33:18;94100.63;;;9.04
24278;BMP280;12394;42.692;23.314;2022-11-24T05:35:45;94095.38;;;9.08
24278;BMP280;12394;42.692;23.314;2022-11-24T05:38:12;94116.66;;;9.06
24278;BMP280;12394;42.692;23.314;2022-11-24T05:40:37;94106.59;;;9.05
24278;BMP280;12394;42.692;23.314;2022-11-24T05:43:03;94119.19;;;9.10
24278;BMP280;12394;42.692;23.314;2022-11-24T05:45:28;94117.69;;;9.12
24278;BMP280;12394;42.692;23.314;2022-11-24T05:47:54;94077.84;;;8.85
24278;BMP280;12394;42.692;23.314;2022-11-24T05:50:20;94115.41;;;9.14
24278;BMP280;12394;42.692;23.314;2022-11-24T05:52:47;94121.72;;;9.17
24278;BMP280;12394;42.692;23.314;2022-11-24T05:55:13;94108.88;;;9.03
24278;BMP280;12394;42.692;23.314;2022-11-24T05:57:39;94118.44;;;9.13
24278;BMP280;12394;42.692;23.314;2022-11-24T06:00:06;94128.44;;;9.14
24278;BMP280;12394;42.692;23.314;2022-11-24T06:02:31;94128.13;;;9.12
24278;BMP280;12394;42.692;23.314;2022-11-24T06:04:57;94128.50;;;9.11
24278;BMP280;12394;42.692;23.314;2022-11-24T06:07:22;94131.91;;;9.08
24278;BMP280;12394;42.692;23.314;2022-11-24T06:09:47;94127.81;;;9.07
24278;BMP280;12394;42.692;23.314;2022-11-24T06:12:13;94132.59;;;9.12
24278;BMP280;12394;42.692;23.314;2022-11-24T06:14:39;94137.03;;;9.15
24278;BMP280;12394;42.692;23.314;2022-11-24T06:17:04;94122.22;;;9.08
24278;BMP280;12394;42.692;23.314;2022-11-24T06:19:30;94143.28;;;9.21
24278;BMP280;12394;42.692;23.314;2022-11-24T06:21:55;94133.28;;;9.16
24278;BMP280;12394;42.692;23.314;2022-11-24T06:24:21;94138.13;;;9.17
24278;BMP280;12394;42.692;23.314;2022-11-24T06:26:46;94135.53;;;9.14
24278;BMP280;12394;42.692;23.314;2022-11-24T06:29:12;94145.28;;;9.10
24278;BMP280;12394;42.692;23.314;2022-11-24T06:31:37;94154.97;;;9.13
24278;BMP280;12394;42.692;23.314;2022-11-24T06:34:07;94148.34;;;9.05
24278;BMP280;12394;42.692;23.314;2022-11-24T06:36:35;94169.00;;;9.19
24278;BMP280;12394;42.692;23.314;2022-11-24T06:39:00;94162.28;;;9.21
24278;BMP280;12394;42.692;23.314;2022-11-24T06:41:26;94174.53;;;9.24
24278;BMP280;12394;42.692;23.314;2022-11-24T06:43:52;94184.59;;;9.26
24278;BMP280;12394;42.692;23.314;2022-11-24T06:46:17;94188.66;;;9.27
24278;BMP280;12394;42.692;23.314;2022-11-24T06:48:43;94196.22;;;9.21
24278;BMP280;12394;42.692;23.314;2022-11-24T06:51:10;94203.72;;;9.16
24278;BMP280;12394;42.692;23.314;2022-11-24T06:53:38;94201.31;;;9.02
24278;BMP280;12394;42.692;23.314;2022-11-24T06:56:09;94200.63;;;8.98
24278;BMP280;12394;42.692;23.314;2022-11-24T06:58:43;94209.56;;;8.97
24278;BMP280;12394;42.692;23.314;2022-11-24T07:01:12;94200.75;;;8.87
24278;BMP280;12394;42.692;23.314;2022-11-24T07:03:37;94205.53;;;8.92
24278;BMP280;12394;42.692;23.314;2022-11-24T07:06:03;94215.84;;;9.03
24278;BMP280;12394;42.692;23.314;2022-11-24T07:08:28;94181.84;;;8.79
24278;BMP280;12394;42.692;23.314;2022-11-24T07:10:54;94220.66;;;9.04
24278;BMP280;12394;42.692;23.314;2022-11-24T07:13:19;94235.91;;;9.06
24278;BMP280;12394;42.692;23.314;2022-11-24T07:15:45;94251.13;;;9.11
24278;BMP280;12394;42.692;23.314;2022-11-24T07:18:11;94226.59;;;9.05
24278;BMP280;12394;42.692;23.314;2022-11-24T07:20:36;94248.34;;;9.25
24278;BMP280;12394;42.692;23.314;2022-11-24T07:23:02;94252.44;;;9.26
24278;BMP280;12394;42.692;23.314;2022-11-24T07:25:27;94240.66;;;9.14
24278;BMP280;12394;42.692;23.314;2022-11-24T07:27:59;94246.88;;;9.24
24278;BMP280;12394;42.692;23.314;2022-11-24T07:30:25;94252.78;;;9.28
24278;BMP280;12394;42.692;23.314;2022-11-24T07:32:57;94262.50;;;9.24
24278;BMP280;12394;42.692;23.314;2022-11-24T07:35:23;94257.03;;;9.15
24278;BMP280;12394;42.692;23.314;2022-11-24T07:37:48;94244.31;;;9.20
24278;BMP280;12394;42.692;23.314;2022-11-24T07:40:13;94262.91;;;9.22
24278;BMP280;12394;42.692;23.314;2022-11-24T07:42:39;94271.19;;;9.17
24278;BMP280;12394;42.692;23.314;2022-11-24T07:45:05;94269.03;;;9.09
24278;BMP280;12394;42.692;23.314;2022-11-24T07:47:30;94276.59;;;9.03
24278;BMP280;12394;42.692;23.314;2022-11-24T07:49:55;94270.00;;;8.91
24278;BMP280;12394;42.692;23.314;2022-11-24T07:52:21;94282.50;;;8.73
24278;BMP280;12394;42.692;23.314;2022-11-24T07:54:47;94285.94;;;8.63
24278;BMP280;12394;42.692;23.314;2022-11-24T07:57:12;94291.56;;;8.62
24278;BMP280;12394;42.692;23.314;2022-11-24T07:59:38;94294.13;;;8.65
24278;BMP280;12394;42.692;23.314;2022-11-24T08:02:03;94301.31;;;8.58
24278;BMP280;12394;42.692;23.314;2022-11-24T08:04:28;94301.09;;;8.38
24278;BMP280;12394;42.692;23.314;2022-11-24T08:06:54;94305.63;;;8.34
24278;BMP280;12394;42.692;23.314;2022-11-24T08:09:19;94305.56;;;8.37
24278;BMP280;12394;42.692;23.314;2022-11-24T08:11:44;94310.03;;;8.37
24278;BMP280;12394;42.692;23.314;2022-11-24T08:14:10;94310.03;;;8.37
24278;BMP280;12394;42.692;23.314;2022-11-24T08:16:35;94308.09;;;8.48
24278;BMP280;12394;42.692;23.314;2022-11-24T08:19:01;94320.44;;;8.40
24278;BMP280;12394;42.692;23.314;2022-11-24T08:21:26;94306.78;;;8.22
24278;BMP280;12394;42.692;23.314;2022-11-24T08:23:55;94322.75;;;8.35
24278;BMP280;12394;42.692;23.314;2022-11-24T08:26:21;94319.81;;;8.22
24278;BMP280;12394;42.692;23.314;2022-11-24T08:28:47;94332.75;;;8.36
24278;BMP280;12394;42.692;23.314;2022-11-24T08:31:15;94327.25;;;8.31
24278;BMP280;12394;42.692;23.314;2022-11-24T08:33:42;94330.91;;;8.37
24278;BMP280;12394;42.692;23.314;2022-11-24T08:36:10;94326.50;;;8.30
24278;BMP280;12394;42.692;23.314;2022-11-24T08:38:36;94339.16;;;8.25
24278;BMP280;12394;42.692;23.314;2022-11-24T08:41:03;94345.16;;;8.18
24278;BMP280;12394;42.692;23.314;2022-11-24T08:43:29;94349.03;;;7.99
24278;BMP280;12394;42.692;23.314;2022-11-24T08:45:58;94350.81;;;8.10
24278;BMP280;12394;42.692;23.314;2022-11-24T08:48:23;94351.53;;;8.14
24278;BMP280;12394;42.692;23.314;2022-11-24T08:50:49;94362.16;;;8.37
24278;BMP280;12394;42.692;23.314;2022-11-24T08:53:14;94371.16;;;8.29
24278;BMP280;12394;42.692;23.314;2022-11-24T08:55:39;94357.44;;;8.18
24278;BMP280;12394;42.692;23.314;2022-11-24T08:58:05;94341.50;;;8.09
24278;BMP280;12394;42.692;23.314;2022-11-24T09:00:30;94349.72;;;8.07
24278;BMP280;12394;42.692;23.314;2022-11-24T09:02:56;94367.47;;;8.26
24278;BMP280;12394;42.692;23.314;2022-11-24T09:05:23;94366.00;;;8.22
24278;BMP280;12394;42.692;23.314;2022-11-24T09:07:48;94366.75;;;8.19
24278;BMP280;12394;42.692;23.314;2022-11-24T09:10:13;94374.50;;;8.33
24278;BMP280;12394;42.692;23.314;2022-11-24T09:12:39;94373.75;;;8.32
24278;BMP280;12394;42.692;23.314;2022-11-24T09:15:05;94377.88;;;8.26
24278;BMP280;12394;42.692;23.314;2022-11-24T09:17:31;94384.22;;;8.25
24278;BMP280;12394;42.692;23.314;2022-11-24T09:19:56;94381.22;;;8.23
24278;BMP280;12394;42.692;23.314;2022-11-24T09:22:22;94377.88;;;8.23
24278;BMP280;12394;42.692;23.314;2022-11-24T09:24:47;94377.97;;;8.09
24278;BMP280;12394;42.692;23.314;2022-11-24T09:27:12;94357.97;;;7.98
24278;BMP280;12394;42.692;23.314;2022-11-24T09:29:38;94377.88;;;8.23
24278;BMP280;12394;42.692;23.314;2022-11-24T09:32:03;94372.66;;;8.26
24278;BMP280;12394;42.692;23.314;2022-11-24T09:34:29;94388.09;;;8.55
24278;BMP280;12394;42.692;23.314;2022-11-24T09:36:54;94388.19;;;8.44
24278;BMP280;12394;42.692;23.314;2022-11-24T09:39:20;94382.38;;;8.19
24278;BMP280;12394;42.692;23.314;2022-11-24T09:42:11;94376.50;;;8.11
24278;BMP280;12394;42.692;23.314;2022-11-24T09:50:23;94390.50;;;8.28
24278;BMP280;12394;42.692;23.314;2022-11-24T09:55:28;94382.50;;;8.01
24278;BMP280;12394;42.692;23.314;2022-11-24T10:00:59;94384.38;;;8.00
24278;BMP280;12394;42.692;23.314;2022-11-24T10:03:31;94403.66;;;8.10
24278;BMP280;12394;42.692;23.314;2022-11-24T10:06:00;94401.09;;;8.07
24278;BMP280;12394;42.692;23.314;2022-11-24T10:11:14;94409.44;;;7.73
24278;BMP280;12394;42.692;23.314;2022-11-24T10:14:06;94414.06;;;7.44
24278;BMP280;12394;42.692;23.314;2022-11-24T10:22:22;94410.78;;;7.19
24278;BMP280;12394;42.692;23.314;2022-11-24T10:27:42;94417.09;;;7.25
24278;BMP280;12394;42.692;23.314;2022-11-24T10:30:22;94415.19;;;7.33
24278;BMP280;12394;42.692;23.314;2022-11-24T10:32:54;94414.81;;;7.45
24278;BMP280;12394;42.692;23.314;2022-11-24T10:35:26;94411.13;;;7.28
24278;BMP280;12394;42.692;23.314;2022-11-24T10:40:34;94420.06;;;7.24
24278;BMP280;12394;42.692;23.314;2022-11-24T10:43:01;94404.16;;;6.93
24278;BMP280;12394;42.692;23.314;2022-11-24T10:45:27;94413.03;;;7.10
24278;BMP280;12394;42.692;23.314;2022-11-24T10:47:53;94413.38;;;7.19
24278;BMP280;12394;42.692;23.314;2022-11-24T10:58:33;94404.47;;;7.17
24278;BMP280;12394;42.692;23.314;2022-11-24T11:03:51;94409.66;;;7.24
24278;BMP280;12394;42.692;23.314;2022-11-24T11:06:28;94424.13;;;7.28
24278;BMP280;12394;42.692;23.314;2022-11-24T11:11:32;94400.00;;;7.13
24278;BMP280;12394;42.692;23.314;2022-11-24T11:14:02;94391.53;;;6.99
24278;BMP280;12394;42.692;23.314;2022-11-24T11:18:53;94425.69;;;7.11
24278;BMP280;12394;42.692;23.314;2022-11-24T11:21:36;94428.63;;;7.21
24278;BMP280;12394;42.692;23.314;2022-11-24T11:24:22;94423.81;;;7.15
24278;BMP280;12394;42.692;23.314;2022-11-24T11:26:58;94417.84;;;7.26
24278;BMP280;12394;42.692;23.314;2022-11-24T11:29:26;94415.56;;;7.35
24278;BMP280;12394;42.692;23.314;2022-11-24T11:32:01;94429.28;;;7.49
24278;BMP280;12394;42.692;23.314;2022-11-24T11:34:32;94431.88;;;7.46
24278;BMP280;12394;42.692;23.314;2022-11-24T11:37:00;94417.44;;;7.34
24278;BMP280;12394;42.692;23.314;2022-11-24T11:39:47;94430.81;;;7.29
24278;BMP280;12394;42.692;23.314;2022-11-24T11:42:22;94428.22;;;7.33
24278;BMP280;12394;42.692;23.314;2022-11-24T11:44:51;94430.41;;;7.41
24278;BMP280;12394;42.692;23.314;2022-11-24T11:49:48;94430.38;;;7.52
24278;BMP280;12394;42.692;23.314;2022-11-24T11:52:31;94431.13;;;7.45
24278;BMP280;12394;42.692;23.314;2022-11-24T12:00:30;94444.06;;;7.67
24278;BMP280;12394;42.692;23.314;2022-11-24T12:11:24;94457.50;;;8.34
24278;BMP280;12394;42.692;23.314;2022-11-24T12:14:23;94446.66;;;8.43
24278;BMP280;12394;42.692;23.314;2022-11-24T12:25:25;94453.06;;;8.24
24278;BMP280;12394;42.692;23.314;2022-11-24T12:28:04;94446.44;;;8.09
24278;BMP280;12394;42.692;23.314;2022-11-24T12:33:48;94448.03;;;7.92
24278;BMP280;12394;42.692;23.314;2022-11-24T12:36:39;94456.28;;;7.80
24278;BMP280;12394;42.692;23.314;2022-11-24T12:39:16;94448.09;;;7.78
24278;BMP280;12394;42.692;23.314;2022-11-24T12:50:19;94460.09;;;7.54
24278;BMP280;12394;42.692;23.314;2022-11-24T12:52:55;94455.97;;;7.68
24278;BMP280;12394;42.692;23.314;2022-11-24T12:55:27;94459.25;;;7.82
24278;BMP280;12394;42.692;23.314;2022-11-24T13:00:51;94455.66;;;8.28
24278;BMP280;12394;42.692;23.314;2022-11-24T13:06:02;94457.50;;;8.34
24278;BMP280;12394;42.692;23.314;2022-11-24T13:08:30;94468.03;;;8.10
24278;BMP280;12394;42.692;23.314;2022-11-24T13:14:00;94475.50;;;8.08
24278;BMP280;12394;42.692;23.314;2022-11-24T13:16:27;94473.19;;;8.20
24278;BMP280;12394;42.692;23.314;2022-11-24T13:40:00;94483.78;;;7.88
24278;BMP280;12394;42.692;23.314;2022-11-24T13:42:28;94474.88;;;7.82
24278;BMP280;12394;42.692;23.314;2022-11-24T13:44:55;94484.13;;;7.90
24278;BMP280;12394;42.692;23.314;2022-11-24T13:49:56;94489.69;;;7.96
24278;BMP280;12394;42.692;23.314;2022-11-24T13:57:47;94483.09;;;7.74
24278;BMP280;12394;42.692;23.314;2022-11-24T14:02:45;94498.75;;;7.67
24278;BMP280;12394;42.692;23.314;2022-11-24T14:05:35;94503.19;;;7.70
24278;BMP280;12394;42.692;23.314;2022-11-24T14:08:04;94515.84;;;7.64
24278;BMP280;12394;42.692;23.314;2022-11-24T14:10:33;94508.78;;;7.65
24278;BMP280;12394;42.692;23.314;2022-11-24T14:16:12;94494.66;;;7.66
24278;BMP280;12394;42.692;23.314;2022-11-24T14:18:40;94507.63;;;7.73
24278;BMP280;12394;42.692;23.314;2022-11-24T14:21:29;94506.53;;;7.70
24278;BMP280;12394;42.692;23.314;2022-11-24T14:23:56;94510.63;;;7.75
24278;BMP280;12394;42.692;23.314;2022-11-24T14:26:33;94512.50;;;7.67
24278;BMP280;12394;42.692;23.314;2022-11-24T14:29:22;94510.56;;;7.89
24278;BMP280;12394;42.692;23.314;2022-11-24T14:31:56;94509.09;;;7.84
24278;BMP280;12394;42.692;23.314;2022-11-24T14:34:24;94500.16;;;7.85
24278;BMP280;12394;42.692;23.314;2022-11-24T14:36:51;94516.53;;;7.89
24278;BMP280;12394;42.692;23.314;2022-11-24T14:39:22;94503.16;;;7.80
24278;BMP280;12394;42.692;23.314;2022-11-24T14:45:02;94513.22;;;7.75
24278;BMP280;12394;42.692;23.314;2022-11-24T14:49:55;94506.53;;;7.70
24278;BMP280;12394;42.692;23.314;2022-11-24T14:52:22;94510.59;;;7.78
24278;BMP280;12394;42.692;23.314;2022-11-24T14:54:58;94516.19;;;7.80
24278;BMP280;12394;42.692;23.314;2022-11-24T14:57:30;94502.13;;;7.56
24278;BMP280;12394;42.692;23.314;2022-11-24T15:00:06;94505.81;;;7.66
24278;BMP280;12394;42.692;23.314;2022-11-24T15:05:24;94513.28;;;7.57
24278;BMP280;12394;42.692;23.314;2022-11-24T15:07:59;94525.91;;;7.55
24278;BMP280;12394;42.692;23.314;2022-11-24T15:10:35;94522.94;;;7.56
24278;BMP280;12394;42.692;23.314;2022-11-24T15:13:04;94523.69;;;7.50
24278;BMP280;12394;42.692;23.314;2022-11-24T15:15:33;94531.84;;;7.59
24278;BMP280;12394;42.692;23.314;2022-11-24T15:18:01;94532.97;;;7.62
24278;BMP280;12394;42.692;23.314;2022-11-24T15:25:48;94541.91;;;7.50
24278;BMP280;12394;42.692;23.314;2022-11-24T15:28:14;94541.91;;;7.50
24278;BMP280;12394;42.692;23.314;2022-11-24T15:30:39;94542.66;;;7.50
24278;BMP280;12394;42.692;23.314;2022-11-24T15:33:14;94537.84;;;7.42
24278;BMP280;12394;42.692;23.314;2022-11-24T15:35:40;94552.31;;;7.57
24278;BMP280;12394;42.692;23.314;2022-11-24T15:38:05;94548.63;;;7.44
24278;BMP280;12394;42.692;23.314;2022-11-24T15:40:30;94559.75;;;7.41
24278;BMP280;12394;42.692;23.314;2022-11-24T15:42:56;94546.41;;;7.39
24278;BMP280;12394;42.692;23.314;2022-11-24T15:45:24;94550.47;;;7.47
24278;BMP280;12394;42.692;23.314;2022-11-24T15:47:54;94556.06;;;7.42
24278;BMP280;12394;42.692;23.314;2022-11-24T15:50:20;94564.59;;;7.46
24278;BMP280;12394;42.692;23.314;2022-11-24T15:52:46;94551.25;;;7.30
24278;BMP280;12394;42.692;23.314;2022-11-24T15:55:18;94564.22;;;7.37
24278;BMP280;12394;42.692;23.314;2022-11-24T15:57:44;94564.97;;;7.37
24278;BMP280;12394;42.692;23.314;2022-11-24T16:00:18;94574.66;;;7.44
24278;BMP280;12394;42.692;23.314;2022-11-24T16:02:44;94569.44;;;7.37
24278;BMP280;12394;42.692;23.314;2022-11-24T16:05:10;94571.69;;;7.28
24278;BMP280;12394;42.692;23.314;2022-11-24T16:07:36;94574.66;;;7.30
24278;BMP280;12394;42.692;23.314;2022-11-24T16:10:04;94572.78;;;7.37
24278;BMP280;12394;42.692;23.314;2022-11-24T16:12:30;94577.63;;;7.25
24278;BMP280;12394;42.692;23.314;2022-11-24T16:14:55;94579.13;;;7.26
24278;BMP280;12394;42.692;23.314;2022-11-24T16:17:22;94585.06;;;7.30
24278;BMP280;12394;42.692;23.314;2022-11-24T16:19:47;94576.53;;;7.26
24278;BMP280;12394;42.692;23.314;2022-11-24T16:22:13;94585.44;;;7.18
24278;BMP280;12394;42.692;23.314;2022-11-24T16:24:38;94585.44;;;7.28
24278;BMP280;12394;42.692;23.314;2022-11-24T16:27:03;94585.81;;;7.16
24278;BMP280;12394;42.692;23.314;2022-11-24T16:29:29;94585.81;;;7.09
24278;BMP280;12394;42.692;23.314;2022-11-24T16:31:55;94589.91;;;7.03